Here is the Quick Look data you requested

The Data originates at the National Weather Service, and is made available here by the UAlbany Department of Atmospheric and Environmental Sciences

Surface Observations

KRIC 151954Z 23010KT 10SM FEW065 36/20 A2990 RMK AO2 SLP128 T03610200=
KRIC 152054Z 20011KT 10SM FEW060 FEW300 36/21 A2989 RMK AO2 SLP122 T03560211
 58018=
KRIC 152154Z 20010KT 10SM FEW300 34/21 A2988 RMK AO2 SLP119 T03440211=
KRIC 152254Z 20007KT 10SM FEW120 FEW300 34/22 A2988 RMK AO2 SLP120 T03390217=
KRIC 152354Z 18007KT 10SM FEW120 FEW300 32/23 A2988 RMK AO2 SLP119 T03170233
 10361 20317 56003=
KRIC 160054Z 16005KT 10SM FEW120 FEW300 30/23 A2989 RMK AO2 SLP124 T03000228=
KRIC 160154Z 19006KT 10SM FEW120 FEW300 29/24 A2989 RMK AO2 SLP124 T02890239=
KRIC 160254Z 19008KT 10SM FEW300 29/24 A2988 RMK AO2 SLP122 T02890239 50003=
KRIC 160354Z 22008KT 10SM CLR 29/23 A2988 RMK AO2 SLP119 T02940233=
KRIC 160454Z 19008KT 10SM CLR 28/23 A2987 RMK AO2 SLP118 T02830228 403610244=
KRIC 160554Z 20008KT 10SM CLR 28/23 A2987 RMK AO2 SLP117 T02780228 10317 20272
 56005=
KRIC 160654Z 21009KT 10SM CLR 27/22 A2987 RMK AO2 SLP118 T02720222=
KRIC 160754Z 20007KT 10SM CLR 26/22 A2988 RMK AO2 SLP120 T02610222=
KRIC 160854Z 21007KT 10SM CLR 26/22 A2989 RMK AO2 SLP124 T02610217 53007=
KRIC 160954Z 17004KT 10SM FEW140 24/22 A2988 RMK AO2 SLP122 T02440217=
KRIC 161054Z 20004KT 9SM FEW140 SCT250 25/22 A2989 RMK AO2 SLP124 T02500222=
KRIC 161154Z 21006KT 10SM SCT250 27/23 A2991 RMK AO2 SLP130 T02670228 10278
 20239 53006=
KRIC 161254Z 22006KT 10SM FEW180 SCT250 29/23 A2991 RMK AO2 SLP131 T02940228=
KRIC 161354Z 21007KT 10SM SCT250 31/23 A2991 RMK AO2 SLP129 T03060233=
KRIC 161454Z 18008KT 10SM SCT250 32/24 A2990 RMK AO2 SLP128 T03220239 58002=
KRIC 161554Z 21009KT 10SM SCT250 34/24 A2990 RMK AO2 SLP127 T03390239=
KRIC 161654Z 19008KT 10SM SCT250 34/25 A2989 RMK AO2 SLP124 T03440250=
KRIC 161754Z 19011KT 10SM FEW045 SCT250 35/25 A2987 RMK AO2 SLP117 T03500250
 10356 20267 58010=
KRIC 161854Z 20008G16KT 10SM FEW045 SCT250 36/24 A2985 RMK AO2 SLP111 T03610244=
KRIC 161954Z 19013KT 10SM FEW045 36/24 A2984 RMK AO2 SLP106 T03560244=

Decoded Surface Observations


The weather observed at RICHMOND, VA (KRIC) at 03:54 PM EDT was:
  The skies were mostly clear.
  Temperature: 97F ( 36C)  Dewpoint:  68F ( 20C)  Relative Humidity:  39%
  Winds from the SW (230 degs) at 12 mph.
  Pressure: 1012.8 millibars.  Altimeter:29.90 inches of mercury.
  The prevailing visibility was 10 miles.

The weather observed at RICHMOND, VA (KRIC) at 04:54 PM EDT was:
  The skies were mostly clear.
  Temperature: 96F ( 36C)  Dewpoint:  70F ( 21C)  Relative Humidity:  43%
  Winds from the SSW(200 degs) at 13 mph.
  Pressure: 1012.2 millibars.  Altimeter:29.89 inches of mercury.
  The prevailing visibility was 10 miles.

The weather observed at RICHMOND, VA (KRIC) at 05:54 PM EDT was:
  The skies were mostly clear.
  Temperature: 93F ( 34C)  Dewpoint:  70F ( 21C)  Relative Humidity:  47%
  Winds from the SSW(200 degs) at 12 mph.
  Pressure: 1011.9 millibars.  Altimeter:29.88 inches of mercury.
  The prevailing visibility was 10 miles.

The weather observed at RICHMOND, VA (KRIC) at 06:54 PM EDT was:
  The skies were mostly clear.
  Temperature: 93F ( 34C)  Dewpoint:  72F ( 22C)  Relative Humidity:  50%
  Winds from the SSW(200 degs) at  8 mph.
  Pressure: 1012.0 millibars.  Altimeter:29.88 inches of mercury.
  The prevailing visibility was 10 miles.

The weather observed at RICHMOND, VA (KRIC) at 07:54 PM EDT was:
  The skies were mostly clear.
  Temperature: 89F ( 32C)  Dewpoint:  74F ( 23C)  Relative Humidity:  61%
  Winds from the S  (180 degs) at  8 mph.
  Pressure: 1011.9 millibars.  Altimeter:29.88 inches of mercury.
  The prevailing visibility was 10 miles.
  The maximum temperature in the past 6 hours was  97F.
  The minimum temperature in the past 6 hours was  89F.

The weather observed at RICHMOND, VA (KRIC) at 08:54 PM EDT was:
  The skies were mostly clear.
  Temperature: 86F ( 30C)  Dewpoint:  73F ( 23C)  Relative Humidity:  66%
  Winds from the SSE(160 degs) at  6 mph.
  Pressure: 1012.4 millibars.  Altimeter:29.89 inches of mercury.
  The prevailing visibility was 10 miles.

The weather observed at RICHMOND, VA (KRIC) at 09:54 PM EDT was:
  The skies were mostly clear.
  Temperature: 84F ( 29C)  Dewpoint:  75F ( 24C)  Relative Humidity:  74%
  Winds from the S  (190 degs) at  7 mph.
  Pressure: 1012.4 millibars.  Altimeter:29.89 inches of mercury.
  The prevailing visibility was 10 miles.

The weather observed at RICHMOND, VA (KRIC) at 10:54 PM EDT was:
  The skies were mostly clear.
  Temperature: 84F ( 29C)  Dewpoint:  75F ( 24C)  Relative Humidity:  74%
  Winds from the S  (190 degs) at  9 mph.
  Pressure: 1012.2 millibars.  Altimeter:29.88 inches of mercury.
  The prevailing visibility was 10 miles.

The weather observed at RICHMOND, VA (KRIC) at 11:54 PM EDT was:
  The skies were clear.
  Temperature: 84F ( 29C)  Dewpoint:  73F ( 23C)  Relative Humidity:  70%
  Winds from the SW (220 degs) at  9 mph.
  Pressure: 1011.9 millibars.  Altimeter:29.88 inches of mercury.
  The prevailing visibility was 10 miles.

The weather observed at RICHMOND, VA (KRIC) at 12:54 AM EDT was:
  The skies were clear.
  Temperature: 83F ( 28C)  Dewpoint:  73F ( 23C)  Relative Humidity:  72%
  Winds from the S  (190 degs) at  9 mph.
  Pressure: 1011.8 millibars.  Altimeter:29.87 inches of mercury.
  The prevailing visibility was 10 miles.

The weather observed at RICHMOND, VA (KRIC) at 01:54 AM EDT was:
  The skies were clear.
  Temperature: 82F ( 28C)  Dewpoint:  73F ( 23C)  Relative Humidity:  74%
  Winds from the SSW(200 degs) at  9 mph.
  Pressure: 1011.7 millibars.  Altimeter:29.87 inches of mercury.
  The prevailing visibility was 10 miles.
  The maximum temperature in the past 6 hours was  89F.
  The minimum temperature in the past 6 hours was  81F.

The weather observed at RICHMOND, VA (KRIC) at 02:54 AM EDT was:
  The skies were clear.
  Temperature: 81F ( 27C)  Dewpoint:  72F ( 22C)  Relative Humidity:  74%
  Winds from the SW (210 degs) at 10 mph.
  Pressure: 1011.8 millibars.  Altimeter:29.87 inches of mercury.
  The prevailing visibility was 10 miles.

The weather observed at RICHMOND, VA (KRIC) at 03:54 AM EDT was:
  The skies were clear.
  Temperature: 79F ( 26C)  Dewpoint:  72F ( 22C)  Relative Humidity:  79%
  Winds from the SSW(200 degs) at  8 mph.
  Pressure: 1012.0 millibars.  Altimeter:29.88 inches of mercury.
  The prevailing visibility was 10 miles.

The weather observed at RICHMOND, VA (KRIC) at 04:54 AM EDT was:
  The skies were clear.
  Temperature: 79F ( 26C)  Dewpoint:  71F ( 22C)  Relative Humidity:  77%
  Winds from the SW (210 degs) at  8 mph.
  Pressure: 1012.4 millibars.  Altimeter:29.89 inches of mercury.
  The prevailing visibility was 10 miles.

The weather observed at RICHMOND, VA (KRIC) at 05:54 AM EDT was:
  The skies were mostly clear.
  Temperature: 75F ( 24C)  Dewpoint:  72F ( 22C)  Relative Humidity:  89%
  Winds from the S  (170 degs) at  5 mph.
  Pressure: 1012.2 millibars.  Altimeter:29.88 inches of mercury.
  The prevailing visibility was 10 miles.

The weather observed at RICHMOND, VA (KRIC) at 06:54 AM EDT was:
  The skies were partly cloudy.
  Temperature: 77F ( 25C)  Dewpoint:  72F ( 22C)  Relative Humidity:  83%
  Winds from the SSW(200 degs) at  5 mph.
  Pressure: 1012.4 millibars.  Altimeter:29.89 inches of mercury.
  The prevailing visibility was 9 miles.

The weather observed at RICHMOND, VA (KRIC) at 07:54 AM EDT was:
  The skies were partly cloudy.
  Temperature: 80F ( 27C)  Dewpoint:  73F ( 23C)  Relative Humidity:  79%
  Winds from the SW (210 degs) at  7 mph.
  Pressure: 1013.0 millibars.  Altimeter:29.91 inches of mercury.
  The prevailing visibility was 10 miles.
  The maximum temperature in the past 6 hours was  82F.
  The minimum temperature in the past 6 hours was  75F.

The weather observed at RICHMOND, VA (KRIC) at 08:54 AM EDT was:
  The skies were partly cloudy.
  Temperature: 84F ( 29C)  Dewpoint:  73F ( 23C)  Relative Humidity:  70%
  Winds from the SW (220 degs) at  7 mph.
  Pressure: 1013.1 millibars.  Altimeter:29.91 inches of mercury.
  The prevailing visibility was 10 miles.

The weather observed at RICHMOND, VA (KRIC) at 09:54 AM EDT was:
  The skies were partly cloudy.
  Temperature: 88F ( 31C)  Dewpoint:  73F ( 23C)  Relative Humidity:  62%
  Winds from the SW (210 degs) at  8 mph.
  Pressure: 1012.9 millibars.  Altimeter:29.91 inches of mercury.
  The prevailing visibility was 10 miles.

The weather observed at RICHMOND, VA (KRIC) at 10:54 AM EDT was:
  The skies were partly cloudy.
  Temperature: 90F ( 32C)  Dewpoint:  75F ( 24C)  Relative Humidity:  62%
  Winds from the S  (180 degs) at  9 mph.
  Pressure: 1012.8 millibars.  Altimeter:29.90 inches of mercury.
  The prevailing visibility was 10 miles.

The weather observed at RICHMOND, VA (KRIC) at 11:54 AM EDT was:
  The skies were partly cloudy.
  Temperature: 93F ( 34C)  Dewpoint:  75F ( 24C)  Relative Humidity:  56%
  Winds from the SW (210 degs) at 10 mph.
  Pressure: 1012.7 millibars.  Altimeter:29.90 inches of mercury.
  The prevailing visibility was 10 miles.

The weather observed at RICHMOND, VA (KRIC) at 12:54 PM EDT was:
  The skies were partly cloudy.
  Temperature: 93F ( 34C)  Dewpoint:  77F ( 25C)  Relative Humidity:  59%
  Winds from the S  (190 degs) at  9 mph.
  Pressure: 1012.4 millibars.  Altimeter:29.89 inches of mercury.
  The prevailing visibility was 10 miles.

The weather observed at RICHMOND, VA (KRIC) at 01:54 PM EDT was:
  The skies were partly cloudy.
  Temperature: 95F ( 35C)  Dewpoint:  77F ( 25C)  Relative Humidity:  56%
  Winds from the S  (190 degs) at 13 mph.
  Pressure: 1011.7 millibars.  Altimeter:29.87 inches of mercury.
  The prevailing visibility was 10 miles.
  The maximum temperature in the past 6 hours was  96F.
  The minimum temperature in the past 6 hours was  80F.

The weather observed at RICHMOND, VA (KRIC) at 02:54 PM EDT was:
  The skies were partly cloudy.
  Temperature: 97F ( 36C)  Dewpoint:  75F ( 24C)  Relative Humidity:  50%
  Winds from the SSW(200 degs) at  9 mph.
  Pressure: 1011.1 millibars.  Altimeter:29.85 inches of mercury.
  The prevailing visibility was 10 miles.

The weather observed at RICHMOND, VA (KRIC) at 03:54 PM EDT was:
  The skies were mostly clear.
  Temperature: 97F ( 36C)  Dewpoint:  75F ( 24C)  Relative Humidity:  50%
  Winds from the S  (190 degs) at 15 mph.
  Pressure: 1010.6 millibars.  Altimeter:29.84 inches of mercury.
  The prevailing visibility was 10 miles.

Short Range Forecast

Sorry no data found for ric
Make sure ric is a valid station
You might need to specify a nearby major city
Try Again

Zone Forecast

Sorry no data found for ric
Make sure ric is a valid station
You might need to specify a nearby major city
Try Again

State Forecast

Sorry no data found for ric
Make sure ric is a valid station
You might need to specify a nearby major city
Try Again

State Forecast Discussion

Sorry no data found for ric
Make sure ric is a valid station
You might need to specify a nearby major city
Try Again

GFS Short-Range Model Output Statistics (MOS) Forecast

KRIC   GFS MOS GUIDANCE    7/16/2024  1200 UTC
DT /JULY 16/JULY 17                /JULY 18                /JULY 19
HR   18 21 00 03 06 09 12 15 18 21 00 03 06 09 12 15 18 21 00 06 12
N/X                    78          97          73          87    70
TMP  98100 92 85 83 80 83 91 95 94 87 80 76 75 76 79 84 83 79 72 74
DPT  69 68 71 72 72 73 74 73 72 72 74 74 73 73 72 71 71 70 70 69 68
CLD  SC SC SC SC FW SC BK BK BK BK OV OV OV OV OV OV OV OV OV OV BK
WDR  21 22 20 20 21 20 21 23 21 21 22 21 23 27 35 01 03 05 11 31 01
WSP  12 15 10 09 07 06 08 11 13 15 12 07 07 04 04 05 06 06 04 02 07
P06         0     6    10     4    48    41    24    31    36 25 10
P12                    10          50          57          54    30
Q06         0     0     0     0     2     1     0     1     0  0  0
Q12                     0           1           1           1     0
T06     24/25 17/12  4/ 2  3/ 4 47/31 23/10  9/ 2 11/ 1 21/12  3/ 0
T12           35/25        4/ 6       55/34       15/ 4    26/12
CIG   8  8  8  8  8  8  8  8  8  8  7  6  7  4  5  4  6  7  7  7  8
VIS   7  7  7  7  7  7  7  7  7  7  7  7  7  7  7  7  7  7  7  7  7
OBV   N  N  N  N  N  N  N  N  N  N  N  N  N  N  N  N  N  N  N  N  N

GFS Long-Range Model Output Statistics (MOS) Forecast

KRIC   GFSX MOS GUIDANCE   7/16/2024  1200 UTC
FHR  24  36| 48  60| 72  84| 96 108|120 132|144 156|168 180|192
     WED 17| THU 18| FRI 19| SAT 20| SUN 21| MON 22| TUE 23|WED CLIMO
N/X  78  97| 73  87| 70  87| 70  89| 72  92| 72  89| 72  92| 72 68 88
TMP  83  87| 76  79| 74  80| 75  80| 76  82| 76  81| 76  82| 76
DPT  74  74| 72  70| 68  66| 69  69| 72  72| 71  71| 71  71| 70
CLD  PC  OV| OV  OV| OV  PC| OV  OV| OV  OV| OV  OV| OV  OV| PC
WND  10  15| 12   6|  7   7|  6   8|  5   7|  7   8|  6   9|  8
P12  10  50| 57  54| 30  19| 13  38| 28  42| 37  39| 34  36| 26 22 23
P24      50|     71|     38|     38|     52|     57|     58|       36
Q12   0   1|  1   1|  0   0|  0   1|  0   2|  1   3|       |
Q24       1|      2|      0|      0|      1|      4|       |
T12  17  47| 25  26| 19  12|  6  23| 17  36| 25  34| 23  31| 18
T24        | 47    | 31    | 12    | 29    | 47    | 40    | 33

NGM Model Output Statistics (MOS) Forecast

Climatological Summary

Sorry no data found for ric
Make sure ric is a valid station
You might need to specify a nearby major city
Try Again

Watch and Warning Statment

Sorry no data found for ric
Make sure ric is a valid station
You might need to specify a nearby major city
or it could be THERE ARE NO WATCHES OR WARNINGS for ric
Try Again

Park/Ski Recreation Report/Forecast

Sorry no data found for ric
Make sure ric is a valid station
You might need to specify a nearby major city
Try Again